OMAM/DHF METAR and TAF weather

Enter ICAO airport designator
Station Type Date Time Source
OMAM METAR 2020/10/06 15:30 UTC NOAA

OMAM 061530Z 02010KT 8000 SKC 33/22 Q1008 A2976


Station Type Date Time Source
OMAM Decoded METAR 2020/10/06 15:30 UTC NOAA

Station name not available
Oct 06, 2020 - 11:30 AM EDT / 2020.10.06 1530 UTC
Wind: from the NNE (020 degrees) at 12 MPH (10 KT):0
Visibility: 4 mile(s):0
Sky conditions: clear
Temperature: 91 F (33 C)
Heat index: 97.5 F (36.4 C):1
Dew Point: 71 F (22 C)
Relative Humidity: 52%
Pressure (altimeter): 29.76 in. Hg (1007 hPa)
ob: OMAM 061530Z 02010KT 8000 SKC 33/22 Q1008 A2976
cycle: 15

Station Type Date Time Source
OMAM TAF 2015/04/12 06:25 UTC NOAA